Time;durP1;ratioP1;P1;durP2;ratioP2;P2;SDS_P1;SDS_P2;PMS_P1;PMS_P2;Temp;Humidity;BMP_temperature;BMP_pressure;BME280_temperature;BME280_humidity;BME280_pressure;Samples;Min_cycle;Max_cycle;Signal;HPM_P1;HPM_P2
2021/12/03 00:02:18;;;;;;;10.00;4.65;;;;;;;;;;2330058;57;21081;-78
2021/12/03 00:04:45;;;;;;;7.65;4.57;;;;;;;;;;2329815;57;21148;-79
2021/12/03 00:07:12;;;;;;;7.30;4.25;;;;;;;;;;2573012;53;21105;-78
2021/12/03 00:09:39;;;;;;;11.25;4.65;;;;;;;;;;2327436;57;21045;-79
2021/12/03 00:12:07;;;;;;;7.25;4.18;;;;;;;;;;2328977;57;21030;-78
2021/12/03 00:14:35;;;;;;;9.20;3.80;;;;;;;;;;2328783;57;21101;-78
2021/12/03 00:17:02;;;;;;;9.55;5.00;;;;;;;;;;2329055;57;21049;-79
2021/12/03 00:19:29;;;;;;;10.20;4.62;;;;;;;;;;2328885;57;21093;-78
2021/12/03 00:21:56;;;;;;;11.07;5.22;;;;;;;;;;2329151;57;21177;-79
2021/12/03 00:24:23;;;;;;;9.68;5.25;;;;;;;;;;2328975;57;21535;-79
2021/12/03 00:26:50;;;;;;;8.15;4.25;;;;;;;;;;2329175;57;21054;-79
2021/12/03 00:29:17;;;;;;;7.30;4.53;;;;;;;;;;2328951;57;21045;-78
2021/12/03 00:31:44;;;;;;;8.35;4.53;;;;;;;;;;2572007;54;21039;-78
2021/12/03 00:34:11;;;;;;;10.52;3.92;;;;;;;;;;2327697;57;21045;-79
2021/12/03 00:36:38;;;;;;;7.18;4.53;;;;;;;;;;2572065;53;21034;-78
2021/12/03 00:39:05;;;;;;;8.55;4.10;;;;;;;;;;2572006;54;21042;-79
2021/12/03 00:41:35;;;;;;;7.03;4.28;;;;;;;;;;2329043;57;21582;-79
2021/12/03 00:44:02;;;;;;;8.38;3.90;;;;;;;;;;2328743;57;21126;-79
2021/12/03 00:46:29;;;;;;;9.15;4.47;;;;;;;;;;2572014;53;21038;-79
2021/12/03 00:48:56;;;;;;;5.53;4.07;;;;;;;;;;2328961;57;21070;-78
2021/12/03 00:51:25;;;;;;;5.68;4.32;;;;;;;;;;2328766;57;21562;-79
2021/12/03 00:53:52;;;;;;;5.78;3.42;;;;;;;;;;2329031;57;21074;-79
2021/12/03 00:56:19;;;;;;;6.62;3.67;;;;;;;;;;2328999;57;21105;-78
2021/12/03 00:58:46;;;;;;;7.50;4.07;;;;;;;;;;2328729;57;21644;-76
2021/12/03 01:01:13;;;;;;;8.13;4.30;;;;;;;;;;2571941;54;21057;-79
2021/12/03 01:03:41;;;;;;;7.10;3.90;;;;;;;;;;2328940;57;21550;-79
2021/12/03 01:06:09;;;;;;;8.18;3.80;;;;;;;;;;2328844;57;21053;-78
2021/12/03 01:08:36;;;;;;;9.15;3.40;;;;;;;;;;2329107;57;21053;-79
2021/12/03 01:11:03;;;;;;;6.78;3.50;;;;;;;;;;2328976;57;21637;-79
2021/12/03 01:13:30;;;;;;;8.77;4.25;;;;;;;;;;2328831;57;21074;-78
2021/12/03 01:15:57;;;;;;;9.70;3.97;;;;;;;;;;2328838;57;21065;-79
2021/12/03 01:18:24;;;;;;;10.05;4.68;;;;;;;;;;2328815;57;21050;-78
2021/12/03 01:20:51;;;;;;;7.78;3.80;;;;;;;;;;2328650;57;21144;-78
2021/12/03 01:23:18;;;;;;;6.95;4.32;;;;;;;;;;2572295;54;21050;-78
2021/12/03 01:25:45;;;;;;;7.25;4.82;;;;;;;;;;2328811;57;21042;-78
2021/12/03 01:28:13;;;;;;;13.07;5.30;;;;;;;;;;2572289;54;21117;-78
2021/12/03 01:30:40;;;;;;;9.65;5.25;;;;;;;;;;2328451;57;21169;-77
2021/12/03 01:33:07;;;;;;;9.55;5.28;;;;;;;;;;2328867;57;21764;-78
2021/12/03 01:35:35;;;;;;;7.18;4.65;;;;;;;;;;2328729;57;21081;-78
2021/12/03 01:38:02;;;;;;;12.60;5.72;;;;;;;;;;2328896;57;21126;-78
2021/12/03 01:40:30;;;;;;;6.72;4.95;;;;;;;;;;2572068;54;21053;-79
2021/12/03 01:42:58;;;;;;;7.07;5.05;;;;;;;;;;2572377;54;21045;-78
2021/12/03 01:45:26;;;;;;;7.80;4.95;;;;;;;;;;2572327;53;21034;-78
2021/12/03 01:47:54;;;;;;;7.22;4.57;;;;;;;;;;2328854;57;21403;-80
2021/12/03 01:50:24;;;;;;;7.95;4.03;;;;;;;;;;2571485;54;21604;-78
2021/12/03 01:52:51;;;;;;;5.93;4.07;;;;;;;;;;2572086;54;21125;-78
2021/12/03 01:55:20;;;;;;;10.68;5.15;;;;;;;;;;2329138;57;21169;-78
2021/12/03 01:57:47;;;;;;;6.07;3.83;;;;;;;;;;2329128;57;21050;-78
2021/12/03 02:00:18;;;;;;;9.40;4.82;;;;;;;;;;2571827;54;21030;-78
2021/12/03 02:02:45;;;;;;;7.37;3.58;;;;;;;;;;2329096;57;21053;-78
2021/12/03 02:05:12;;;;;;;9.48;3.97;;;;;;;;;;2572137;54;21118;-78
2021/12/03 02:07:39;;;;;;;5.05;3.17;;;;;;;;;;2329167;57;21121;-79
2021/12/03 02:10:07;;;;;;;6.47;3.80;;;;;;;;;;2571946;54;21598;-78
2021/12/03 02:12:34;;;;;;;5.93;2.92;;;;;;;;;;2572398;54;21057;-78
2021/12/03 02:15:01;;;;;;;8.77;3.50;;;;;;;;;;2572358;54;21097;-79
2021/12/03 02:17:28;;;;;;;6.62;3.25;;;;;;;;;;2329111;57;21038;-78
2021/12/03 02:19:55;;;;;;;10.63;3.40;;;;;;;;;;2329156;57;21050;-78
2021/12/03 02:22:22;;;;;;;8.95;3.70;;;;;;;;;;2572427;54;21077;-79
2021/12/03 02:24:49;;;;;;;5.00;3.22;;;;;;;;;;2329204;57;21130;-77
2021/12/03 02:27:16;;;;;;;4.93;3.12;;;;;;;;;;2572030;53;21094;-76
2021/12/03 02:29:43;;;;;;;11.52;4.22;;;;;;;;;;2328836;57;21581;-77
2021/12/03 02:32:11;;;;;;;6.37;3.72;;;;;;;;;;2329239;57;21089;-79
2021/12/03 02:34:38;;;;;;;7.75;3.22;;;;;;;;;;2328273;57;21130;-78
2021/12/03 02:37:05;;;;;;;8.55;4.05;;;;;;;;;;2328524;57;21085;-77
2021/12/03 02:39:32;;;;;;;7.03;4.12;;;;;;;;;;2571895;54;21050;-78
2021/12/03 02:41:59;;;;;;;6.95;4.05;;;;;;;;;;2328411;57;21034;-78
2021/12/03 02:44:26;;;;;;;7.00;3.65;;;;;;;;;;2328467;57;21703;-79
2021/12/03 02:46:53;;;;;;;9.23;4.25;;;;;;;;;;2329384;57;21121;-79
2021/12/03 02:49:20;;;;;;;5.53;4.28;;;;;;;;;;2329070;57;21121;-78
2021/12/03 02:51:47;;;;;;;9.05;4.57;;;;;;;;;;2328703;57;21113;-78
2021/12/03 02:54:14;;;;;;;6.28;4.05;;;;;;;;;;2328966;57;21637;-80
2021/12/03 02:56:41;;;;;;;9.77;4.30;;;;;;;;;;2572134;53;21128;-79
2021/12/03 02:59:08;;;;;;;6.50;4.10;;;;;;;;;;2571902;54;21037;-78
2021/12/03 03:01:37;;;;;;;8.68;3.78;;;;;;;;;;2571834;54;21049;-78
2021/12/03 03:04:04;;;;;;;8.27;4.32;;;;;;;;;;2328986;57;21062;-78
2021/12/03 03:06:31;;;;;;;11.82;6.40;;;;;;;;;;2572317;53;21034;-78
2021/12/03 03:08:58;;;;;;;5.95;3.58;;;;;;;;;;2571477;54;21030;-78
2021/12/03 03:11:25;;;;;;;10.00;4.37;;;;;;;;;;2572221;54;21530;-78
2021/12/03 03:13:52;;;;;;;6.50;3.75;;;;;;;;;;2571347;54;21073;-78
2021/12/03 03:16:20;;;;;;;8.05;4.15;;;;;;;;;;2572402;53;21049;-78
2021/12/03 03:18:47;;;;;;;6.68;3.90;;;;;;;;;;2571513;54;21109;-77
2021/12/03 03:21:14;;;;;;;9.68;4.68;;;;;;;;;;2572065;54;21550;-76
2021/12/03 03:23:42;;;;;;;10.60;4.53;;;;;;;;;;2571967;54;21057;-78
2021/12/03 03:26:09;;;;;;;5.95;3.50;;;;;;;;;;2328600;57;21132;-78
2021/12/03 03:28:37;;;;;;;7.50;3.90;;;;;;;;;;2328765;57;21613;-77
2021/12/03 03:31:04;;;;;;;8.43;3.30;;;;;;;;;;2571776;54;21054;-78
2021/12/03 03:33:31;;;;;;;4.28;3.17;;;;;;;;;;2328971;57;21324;-77
2021/12/03 03:35:58;;;;;;;7.65;3.58;;;;;;;;;;2328344;57;21557;-78
2021/12/03 03:38:25;;;;;;;8.68;3.60;;;;;;;;;;2329010;57;22241;-79
2021/12/03 03:40:53;;;;;;;6.80;3.87;;;;;;;;;;2571830;54;21113;-79
2021/12/03 03:43:20;;;;;;;7.90;3.17;;;;;;;;;;2328824;57;21041;-78
2021/12/03 03:45:47;;;;;;;8.93;3.22;;;;;;;;;;2328851;57;21116;-78
2021/12/03 03:48:14;;;;;;;7.57;3.40;;;;;;;;;;2328811;57;21636;-79
2021/12/03 03:50:41;;;;;;;4.60;2.67;;;;;;;;;;2571507;54;21038;-78
2021/12/03 03:53:08;;;;;;;10.10;2.92;;;;;;;;;;2571984;54;21051;-77
2021/12/03 03:55:35;;;;;;;7.87;2.90;;;;;;;;;;2572003;53;21616;-79
2021/12/03 03:58:03;;;;;;;6.28;2.50;;;;;;;;;;2572228;54;21041;-78
2021/12/03 04:00:31;;;;;;;6.30;2.75;;;;;;;;;;2328495;57;21121;-78
2021/12/03 04:02:58;;;;;;;6.95;3.22;;;;;;;;;;2328876;57;21050;-77
2021/12/03 04:05:25;;;;;;;5.12;2.20;;;;;;;;;;2571919;53;21545;-76
2021/12/03 04:07:52;;;;;;;8.50;2.85;;;;;;;;;;2282302;54;21556;-82
2021/12/03 04:10:19;;;;;;;6.93;3.22;;;;;;;;;;2233581;60;21125;-82
2021/12/03 04:12:46;;;;;;;6.47;2.70;;;;;;;;;;2234194;60;22772;-81
2021/12/03 04:15:14;;;;;;;3.42;2.45;;;;;;;;;;2234189;60;21599;-82
2021/12/03 04:17:41;;;;;;;7.28;3.05;;;;;;;;;;2249408;59;21188;-82
2021/12/03 04:20:10;;;;;;;6.20;2.70;;;;;;;;;;2266366;56;21137;-82
2021/12/03 04:22:37;;;;;;;5.50;2.37;;;;;;;;;;2258940;59;21057;-84
2021/12/03 04:25:05;;;;;;;3.85;2.40;;;;;;;;;;2259265;59;21081;-82
2021/12/03 04:27:34;;;;;;;5.90;3.05;;;;;;;;;;2261290;56;21233;-83
2021/12/03 04:30:01;;;;;;;7.30;3.70;;;;;;;;;;2259149;59;21061;-82
2021/12/03 04:32:28;;;;;;;11.45;5.47;;;;;;;;;;2259603;59;21094;-82
2021/12/03 04:34:55;;;;;;;9.40;3.50;;;;;;;;;;2258739;58;21133;-83
2021/12/03 04:37:22;;;;;;;5.78;4.00;;;;;;;;;;2259437;59;21221;-81
2021/12/03 04:39:51;;;;;;;10.80;4.72;;;;;;;;;;2272020;56;21072;-82
2021/12/03 04:42:18;;;;;;;8.98;4.90;;;;;;;;;;2260063;59;21254;-82
2021/12/03 04:44:45;;;;;;;9.13;4.47;;;;;;;;;;2259892;59;21110;-82
2021/12/03 04:47:12;;;;;;;6.57;4.12;;;;;;;;;;2260174;59;21660;-83
2021/12/03 04:49:39;;;;;;;11.55;4.90;;;;;;;;;;2310918;56;21652;-83
2021/12/03 04:52:06;;;;;;;6.30;4.65;;;;;;;;;;2259970;59;21125;-83
2021/12/03 04:54:34;;;;;;;15.55;6.47;;;;;;;;;;2265249;56;21060;-83
2021/12/03 04:57:01;;;;;;;9.05;5.35;;;;;;;;;;2260536;59;21530;-82
2021/12/03 04:59:28;;;;;;;11.50;7.12;;;;;;;;;;2259951;59;21137;-83
2021/12/03 05:01:57;;;;;;;11.63;6.25;;;;;;;;;;2260541;59;21069;-82
2021/12/03 05:04:24;;;;;;;9.98;6.93;;;;;;;;;;2260649;59;21077;-82
2021/12/03 05:07:03;;;;;;;10.52;7.07;;;;;;;;;;2260659;57;21057;-82
2021/12/03 05:09:30;;;;;;;8.10;5.45;;;;;;;;;;2260919;57;21112;-83
2021/12/03 05:11:58;;;;;;;8.18;5.37;;;;;;;;;;2260938;59;21089;-83
2021/12/03 05:14:24;;;;;;;9.02;5.95;;;;;;;;;;2260926;59;21136;-82
2021/12/03 05:16:51;;;;;;;7.30;5.53;;;;;;;;;;2260455;59;21148;-82
2021/12/03 05:19:19;;;;;;;8.85;5.15;;;;;;;;;;2259913;59;21132;-83
2021/12/03 05:21:46;;;;;;;7.87;5.32;;;;;;;;;;2261029;59;21077;-82
2021/12/03 05:24:13;;;;;;;7.68;5.00;;;;;;;;;;2260018;59;21148;-83
2021/12/03 05:26:40;;;;;;;9.90;5.22;;;;;;;;;;2354998;56;21074;-81
2021/12/03 05:29:08;;;;;;;12.10;6.45;;;;;;;;;;2259094;59;21081;-82
2021/12/03 05:31:35;;;;;;;8.65;5.47;;;;;;;;;;2258573;59;21083;-82
2021/12/03 05:34:03;;;;;;;13.18;5.87;;;;;;;;;;2268145;56;21133;-82
2021/12/03 05:36:30;;;;;;;9.90;6.50;;;;;;;;;;2259834;59;21065;-81
2021/12/03 05:38:57;;;;;;;10.68;5.10;;;;;;;;;;2259596;59;21081;-82
2021/12/03 05:41:24;;;;;;;9.68;6.62;;;;;;;;;;2294216;56;21145;-82
2021/12/03 05:43:51;;;;;;;8.95;5.43;;;;;;;;;;2259328;59;21136;-82
2021/12/03 05:46:18;;;;;;;8.73;6.10;;;;;;;;;;2271912;56;21149;-81
2021/12/03 05:48:45;;;;;;;12.35;6.53;;;;;;;;;;2258624;59;21220;-83
2021/12/03 05:51:12;;;;;;;8.43;5.25;;;;;;;;;;2258073;59;21604;-83
2021/12/03 05:53:39;;;;;;;9.60;5.47;;;;;;;;;;2258121;59;21077;-81
2021/12/03 05:56:06;;;;;;;9.70;5.80;;;;;;;;;;2259829;59;21117;-82
2021/12/03 05:58:33;;;;;;;8.38;5.70;;;;;;;;;;2259716;59;21069;-84
2021/12/03 06:01:00;;;;;;;11.30;5.15;;;;;;;;;;2259532;59;21062;-82
2021/12/03 06:03:27;;;;;;;11.52;6.12;;;;;;;;;;2259952;59;21058;-82
2021/12/03 06:05:54;;;;;;;8.23;5.12;;;;;;;;;;2265900;56;21128;-83
2021/12/03 06:08:21;;;;;;;9.77;6.40;;;;;;;;;;2260105;59;21081;-82
2021/12/03 06:10:48;;;;;;;9.10;5.90;;;;;;;;;;2261701;56;21645;-80
2021/12/03 06:13:15;;;;;;;10.98;6.28;;;;;;;;;;2262964;56;21629;-80
2021/12/03 06:15:42;;;;;;;10.55;5.87;;;;;;;;;;2258456;59;21073;-82
2021/12/03 06:18:09;;;;;;;8.73;6.55;;;;;;;;;;2259429;59;21069;-81
2021/12/03 06:20:36;;;;;;;13.98;6.60;;;;;;;;;;2259270;59;21344;-83
2021/12/03 06:23:03;;;;;;;10.48;6.25;;;;;;;;;;2259656;59;21077;-82
2021/12/03 06:25:30;;;;;;;8.93;5.50;;;;;;;;;;2259595;59;21061;-83
2021/12/03 06:27:58;;;;;;;6.70;5.50;;;;;;;;;;2259975;58;21117;-83
2021/12/03 06:30:26;;;;;;;11.75;6.00;;;;;;;;;;2259648;58;21141;-82
2021/12/03 06:32:53;;;;;;;9.30;6.43;;;;;;;;;;2259887;59;21137;-82
2021/12/03 06:35:21;;;;;;;10.48;6.22;;;;;;;;;;2263546;56;21660;-83
2021/12/03 06:37:49;;;;;;;11.15;7.25;;;;;;;;;;2259613;59;21113;-83
2021/12/03 06:40:17;;;;;;;7.82;5.80;;;;;;;;;;2259607;59;21073;-82
2021/12/03 06:42:44;;;;;;;9.13;6.40;;;;;;;;;;2259703;59;21141;-82
2021/12/03 06:45:11;;;;;;;12.55;6.72;;;;;;;;;;2259662;59;21085;-82
2021/12/03 06:47:39;;;;;;;9.32;6.47;;;;;;;;;;2259656;59;21049;-83
2021/12/03 06:50:08;;;;;;;9.90;6.40;;;;;;;;;;2260217;56;21684;-83
2021/12/03 06:52:37;;;;;;;8.90;6.05;;;;;;;;;;2259870;59;21080;-83
2021/12/03 06:55:09;;;;;;;7.68;6.12;;;;;;;;;;2260180;59;21125;-83
2021/12/03 06:57:36;;;;;;;10.85;7.70;;;;;;;;;;2294258;56;21121;-82
2021/12/03 07:00:03;;;;;;;13.40;7.50;;;;;;;;;;2285399;56;21058;-82
2021/12/03 07:02:30;;;;;;;11.23;7.72;;;;;;;;;;2259905;59;21242;-82
2021/12/03 07:04:57;;;;;;;19.23;8.60;;;;;;;;;;2278022;56;21073;-83
2021/12/03 07:07:24;;;;;;;10.95;7.32;;;;;;;;;;2259853;59;21073;-83
2021/12/03 07:09:51;;;;;;;9.57;6.90;;;;;;;;;;2259887;59;21045;-83
2021/12/03 07:12:18;;;;;;;10.25;6.80;;;;;;;;;;2259838;59;21096;-82
2021/12/03 07:14:45;;;;;;;9.50;6.72;;;;;;;;;;2283199;56;21362;-82
2021/12/03 07:17:12;;;;;;;16.70;7.03;;;;;;;;;;2259693;59;21137;-83
2021/12/03 07:19:39;;;;;;;9.80;6.82;;;;;;;;;;2274835;55;21064;-83
2021/12/03 07:22:06;;;;;;;19.50;8.20;;;;;;;;;;2259943;59;21094;-83
2021/12/03 07:24:34;;;;;;;12.25;8.07;;;;;;;;;;2265128;56;21069;-83
2021/12/03 07:27:00;;;;;;;8.40;6.62;;;;;;;;;;2265605;56;21132;-82
2021/12/03 07:29:28;;;;;;;14.52;8.27;;;;;;;;;;2271829;56;21061;-82
2021/12/03 07:31:55;;;;;;;11.52;7.87;;;;;;;;;;2266177;56;21073;-83
2021/12/03 07:34:22;;;;;;;8.73;6.30;;;;;;;;;;2260369;56;21621;-83
2021/12/03 07:36:49;;;;;;;12.07;7.43;;;;;;;;;;2259511;59;21561;-83
2021/12/03 07:39:16;;;;;;;11.30;7.50;;;;;;;;;;2259643;59;21081;-83
2021/12/03 07:41:43;;;;;;;9.50;7.00;;;;;;;;;;2259711;59;21129;-83
2021/12/03 07:44:10;;;;;;;9.98;7.57;;;;;;;;;;2265068;56;21137;-82
2021/12/03 07:46:37;;;;;;;12.20;7.43;;;;;;;;;;2263709;56;21104;-83
2021/12/03 07:49:04;;;;;;;10.98;6.40;;;;;;;;;;2259682;59;21140;-83
2021/12/03 07:51:31;;;;;;;18.67;8.65;;;;;;;;;;2272940;56;21089;-82
2021/12/03 07:53:58;;;;;;;11.10;6.95;;;;;;;;;;2259664;59;21128;-83
2021/12/03 07:56:25;;;;;;;12.25;7.72;;;;;;;;;;2261234;56;21196;-82
2021/12/03 07:58:52;;;;;;;12.63;6.62;;;;;;;;;;2259658;56;21085;-83
2021/12/03 08:01:19;;;;;;;14.65;8.35;;;;;;;;;;2259161;59;21145;-80
2021/12/03 08:03:46;;;;;;;14.75;8.20;;;;;;;;;;2259369;59;21081;-83
2021/12/03 08:06:13;;;;;;;11.95;7.70;;;;;;;;;;2259721;59;21080;-83
2021/12/03 08:08:41;;;;;;;10.55;7.37;;;;;;;;;;2258854;59;22173;-83
2021/12/03 08:11:08;;;;;;;10.80;6.65;;;;;;;;;;2263095;56;21073;-83
2021/12/03 08:13:36;;;;;;;11.50;7.00;;;;;;;;;;2259748;59;21101;-83
2021/12/03 08:16:03;;;;;;;12.95;6.32;;;;;;;;;;2259660;57;21069;-83
2021/12/03 08:18:30;;;;;;;11.25;7.20;;;;;;;;;;2259362;59;21065;-83
2021/12/03 08:20:57;;;;;;;13.70;7.35;;;;;;;;;;2259056;57;21104;-83
2021/12/03 08:23:25;;;;;;;11.80;7.40;;;;;;;;;;2264511;56;21168;-81
2021/12/03 08:25:52;;;;;;;10.63;7.70;;;;;;;;;;2278622;56;21569;-83
2021/12/03 08:28:19;;;;;;;12.50;6.62;;;;;;;;;;2259551;59;21549;-83
2021/12/03 08:30:46;;;;;;;13.85;7.00;;;;;;;;;;2272550;56;21208;-83
2021/12/03 08:33:13;;;;;;;11.88;6.78;;;;;;;;;;2259260;59;21065;-82
2021/12/03 08:35:40;;;;;;;13.07;6.53;;;;;;;;;;2260903;56;21097;-84
2021/12/03 08:38:08;;;;;;;10.32;6.53;;;;;;;;;;2258697;59;21145;-82
2021/12/03 08:40:35;;;;;;;9.55;6.35;;;;;;;;;;2258414;59;21651;-83
2021/12/03 08:43:02;;;;;;;11.63;7.32;;;;;;;;;;2258751;59;21140;-83
2021/12/03 08:45:29;;;;;;;13.75;7.00;;;;;;;;;;2258894;57;21161;-83
2021/12/03 08:47:58;;;;;;;9.80;6.32;;;;;;;;;;2258657;59;21160;-82
2021/12/03 08:50:30;;;;;;;16.48;7.68;;;;;;;;;;2259033;59;21084;-83
2021/12/03 08:54:47;;;;;;;10.18;6.18;;;;;;;;;;2259174;57;21077;-81
2021/12/03 08:57:14;;;;;;;12.32;7.15;;;;;;;;;;2259143;59;21192;-82
2021/12/03 08:59:41;;;;;;;11.23;6.37;;;;;;;;;;2258797;59;21121;-82
2021/12/03 09:02:08;;;;;;;12.30;6.53;;;;;;;;;;2278192;56;21149;-82
2021/12/03 09:04:36;;;;;;;9.63;7.35;;;;;;;;;;2258878;59;21121;-84
2021/12/03 09:07:04;;;;;;;11.45;6.53;;;;;;;;;;2260471;56;21096;-82
2021/12/03 09:09:31;;;;;;;15.93;7.35;;;;;;;;;;2259403;56;21084;-82
2021/12/03 09:11:58;;;;;;;18.10;7.93;;;;;;;;;;2276088;56;21093;-83
2021/12/03 09:14:29;;;;;;;12.02;7.18;;;;;;;;;;2261865;56;21088;-82
2021/12/03 09:17:01;;;;;;;14.00;8.73;;;;;;;;;;2258740;59;21050;-82
2021/12/03 09:19:32;;;;;;;14.43;8.63;;;;;;;;;;2271446;56;21193;-82
2021/12/03 09:22:00;;;;;;;17.17;9.27;;;;;;;;;;2258968;59;21144;-82
2021/12/03 09:24:31;;;;;;;17.08;10.02;;;;;;;;;;2265069;56;21077;-82
2021/12/03 09:26:58;;;;;;;16.15;9.27;;;;;;;;;;2267252;56;21156;-84
2021/12/03 09:29:30;;;;;;;14.27;8.52;;;;;;;;;;2261653;56;21061;-81
2021/12/03 09:31:58;;;;;;;12.88;8.82;;;;;;;;;;2258724;59;21125;-82
2021/12/03 09:34:25;;;;;;;16.05;10.85;;;;;;;;;;2258554;59;21112;-80
2021/12/03 09:36:52;;;;;;;15.60;9.75;;;;;;;;;;2265209;56;21069;-81
2021/12/03 09:39:21;;;;;;;14.68;9.75;;;;;;;;;;2258399;59;21069;-81
2021/12/03 09:41:48;;;;;;;16.95;10.93;;;;;;;;;;2258435;59;21076;-81
2021/12/03 09:44:16;;;;;;;16.67;10.30;;;;;;;;;;2258585;59;21144;-81
2021/12/03 09:46:43;;;;;;;22.80;11.82;;;;;;;;;;2258662;57;21241;-81
2021/12/03 09:49:26;;;;;;;19.27;12.40;;;;;;;;;;2258363;57;21176;-82
2021/12/03 09:52:03;;;;;;;18.65;11.10;;;;;;;;;;2262261;56;21074;-82
2021/12/03 09:54:36;;;;;;;13.62;10.27;;;;;;;;;;2264745;56;21052;-84
2021/12/03 09:57:07;;;;;;;17.08;10.57;;;;;;;;;;2259798;56;21113;-82
2021/12/03 10:02:28;;;;;;;16.87;9.63;;;;;;;;;;2259594;56;21065;-82
2021/12/03 10:05:23;;;;;;;17.35;10.65;;;;;;;;;;2259529;59;21089;-84
2021/12/03 10:14:08;;;;;;;20.98;13.00;;;;;;;;;;2284761;58;21041;-76
2021/12/03 10:16:56;;;;;;;21.42;11.43;;;;;;;;;;2546463;54;21101;-75
2021/12/03 10:19:32;;;;;;;17.95;11.45;;;;;;;;;;2308229;58;21152;-77
2021/12/03 10:22:21;;;;;;;16.60;9.43;;;;;;;;;;2308745;58;21065;-76
2021/12/03 10:25:16;;;;;;;25.35;12.32;;;;;;;;;;2545479;54;21129;-78
2021/12/03 10:33:51;;;;;;;26.15;16.10;;;;;;;;;;2334501;57;27772;-78
2021/12/03 10:36:33;;;;;;;26.27;11.90;;;;;;;;;;2344722;57;21026;-77
2021/12/03 10:39:16;;;;;;;26.52;14.20;;;;;;;;;;2341071;57;21149;-77
2021/12/03 10:44:35;;;;;;;31.45;13.77;;;;;;;;;;2351384;57;22671;-76
2021/12/03 10:47:13;;;;;;;32.28;14.15;;;;;;;;;;2589782;53;21050;-76
2021/12/03 10:49:58;;;;;;;25.10;13.62;;;;;;;;;;2340965;57;21445;-76
2021/12/03 10:52:35;;;;;;;25.58;12.23;;;;;;;;;;2341959;57;21769;-77
2021/12/03 10:55:44;;;;;;;24.23;12.48;;;;;;;;;;2342273;57;21113;-77
2021/12/03 11:27:33;;;;;;;24.85;13.00;;;;;;;;;;2347501;57;20998;-75
2021/12/03 11:47:45;;;;;;;28.17;14.10;;;;;;;;;;2352777;56;21594;-77
2021/12/03 12:05:25;;;;;;;35.20;17.10;;;;;;;;;;2341171;57;21192;-75
2021/12/03 12:26:08;;;;;;;33.97;15.45;;;;;;;;;;2346546;57;20974;-73
2021/12/03 13:09:27;;;;;;;42.15;17.92;;;;;;;;;;2345235;57;21046;-76
2021/12/03 13:15:30;;;;;;;41.95;18.20;;;;;;;;;;2593069;53;21022;-77
2021/12/03 13:21:49;;;;;;;42.50;17.90;;;;;;;;;;2588483;53;20977;-75
2021/12/03 14:10:06;;;;;;;38.88;17.00;;;;;;;;;;2346347;57;21129;-75
2021/12/03 14:38:11;;;;;;;42.90;17.87;;;;;;;;;;2344765;57;21129;-74
2021/12/03 14:43:44;;;;;;;46.60;17.10;;;;;;;;;;2346236;57;21105;-75
2021/12/03 14:46:33;;;;;;;42.60;17.58;;;;;;;;;;2346436;57;21137;-75
2021/12/03 14:51:46;;;;;;;36.42;14.65;;;;;;;;;;2355559;57;22604;-76
2021/12/03 14:54:45;;;;;;;38.25;16.45;;;;;;;;;;2347128;57;21109;-74
2021/12/03 14:57:17;;;;;;;48.08;22.33;;;;;;;;;;2346892;57;21045;-74
2021/12/03 14:59:57;;;;;;;39.13;17.60;;;;;;;;;;2593363;53;21030;-75
2021/12/03 15:02:38;;;;;;;40.65;18.23;;;;;;;;;;2345942;57;21324;-75
2021/12/03 15:14:29;;;;;;;39.78;16.87;;;;;;;;;;2355312;57;22137;-75
2021/12/03 15:25:26;;;;;;;33.50;17.00;;;;;;;;;;2346319;57;21110;-75
2021/12/03 15:28:22;;;;;;;40.35;22.77;;;;;;;;;;2346263;57;21070;-75
2021/12/03 15:30:56;;;;;;;41.13;22.05;;;;;;;;;;2345923;57;21204;-76
2021/12/03 15:33:29;;;;;;;32.95;17.17;;;;;;;;;;2592951;53;21038;-74
2021/12/03 15:35:58;;;;;;;28.77;14.40;;;;;;;;;;2345575;57;21042;-75
2021/12/03 15:38:39;;;;;;;42.58;19.55;;;;;;;;;;2346047;57;21039;-74
2021/12/03 15:53:07;;;;;;;27.87;13.45;;;;;;;;;;2345746;57;21044;-74
2021/12/03 15:58:34;;;;;;;23.52;12.73;;;;;;;;;;2345996;57;21124;-77
2021/12/03 16:03:54;;;;;;;24.02;13.45;;;;;;;;;;2345824;57;21615;-77
2021/12/03 16:06:43;;;;;;;25.62;13.30;;;;;;;;;;2346183;57;21690;-77
2021/12/03 16:09:16;;;;;;;30.08;14.30;;;;;;;;;;2367965;54;67672;-78
2021/12/03 16:11:49;;;;;;;39.05;17.55;;;;;;;;;;2631070;52;21107;-81
2021/12/03 16:14:43;;;;;;;254.87;105.60;;;;;;;;;;2378049;56;21058;-80
2021/12/03 16:25:53;;;;;;;30.60;17.73;;;;;;;;;;2354919;56;21082;-80
2021/12/03 16:51:26;;;;;;;23.33;14.52;;;;;;;;;;2375602;56;21110;-81
2021/12/03 16:53:56;;;;;;;25.10;13.73;;;;;;;;;;2630005;52;21086;-80
2021/12/03 16:56:25;;;;;;;26.25;13.55;;;;;;;;;;2375639;56;21044;-80
2021/12/03 16:58:52;;;;;;;24.05;11.75;;;;;;;;;;2628938;52;21068;-80
2021/12/03 17:01:25;;;;;;;24.45;12.93;;;;;;;;;;2629234;52;21690;-78
2021/12/03 17:03:57;;;;;;;21.08;12.57;;;;;;;;;;2629458;52;21040;-79
2021/12/03 17:09:24;;;;;;;175.27;65.72;;;;;;;;;;2628517;52;21060;-80
2021/12/03 17:12:11;;;;;;;119.32;48.35;;;;;;;;;;2376163;56;21072;-80
2021/12/03 17:14:56;;;;;;;47.58;22.48;;;;;;;;;;2629214;52;21115;-82
2021/12/03 17:18:13;;;;;;;29.10;15.35;;;;;;;;;;2628663;52;21024;-79
2021/12/03 17:24:00;;;;;;;28.08;14.38;;;;;;;;;;2375606;56;20967;-81
2021/12/03 17:49:03;;;;;;;22.83;13.60;;;;;;;;;;2604252;52;22085;-73
2021/12/03 17:54:25;;;;;;;20.25;11.70;;;;;;;;;;2593599;53;21041;-76
2021/12/03 17:56:54;;;;;;;17.15;8.95;;;;;;;;;;2345500;57;21058;-76
2021/12/03 17:59:24;;;;;;;17.83;9.32;;;;;;;;;;2591992;53;21038;-76
2021/12/03 18:04:44;;;;;;;35.35;20.88;;;;;;;;;;2277704;58;28005;-74
2021/12/03 18:10:26;;;;;;;205.82;62.00;;;;;;;;;;2303144;58;21382;-74
2021/12/03 18:43:49;;;;;;;20.37;10.48;;;;;;;;;;2315912;58;20996;-76
2021/12/03 18:49:37;;;;;;;20.10;12.13;;;;;;;;;;2312386;58;21045;-77
2021/12/03 18:55:01;;;;;;;16.60;10.77;;;;;;;;;;2310628;58;21759;-75
2021/12/03 18:57:30;;;;;;;18.60;10.18;;;;;;;;;;2316671;58;21125;-76
2021/12/03 19:00:00;;;;;;;14.20;10.60;;;;;;;;;;2317207;58;21038;-75
2021/12/03 19:02:28;;;;;;;17.45;10.38;;;;;;;;;;2316513;58;21129;-77
2021/12/03 19:05:00;;;;;;;14.68;8.70;;;;;;;;;;2316595;58;21050;-75
2021/12/03 19:07:30;;;;;;;18.70;10.00;;;;;;;;;;2316823;58;21125;-76
2021/12/03 19:10:01;;;;;;;13.62;8.77;;;;;;;;;;2317073;58;21200;-76
2021/12/03 19:12:30;;;;;;;14.07;8.95;;;;;;;;;;2315446;58;21588;-76
2021/12/03 19:15:00;;;;;;;14.85;8.73;;;;;;;;;;2314748;58;21065;-77
2021/12/03 19:17:30;;;;;;;10.05;7.43;;;;;;;;;;2312414;58;21446;-76
2021/12/03 19:20:00;;;;;;;10.63;7.72;;;;;;;;;;2314962;58;21192;-78
2021/12/03 19:22:27;;;;;;;13.70;8.77;;;;;;;;;;2556684;54;21097;-77
2021/12/03 19:24:57;;;;;;;14.43;7.75;;;;;;;;;;2556689;54;21109;-78
2021/12/03 19:27:25;;;;;;;14.65;8.32;;;;;;;;;;2315069;58;21085;-77
2021/12/03 19:29:54;;;;;;;13.90;8.70;;;;;;;;;;2316284;58;21140;-78
2021/12/03 19:32:23;;;;;;;11.90;8.57;;;;;;;;;;2316794;58;21054;-77
2021/12/03 19:34:51;;;;;;;11.45;7.60;;;;;;;;;;2316600;58;21046;-78
2021/12/03 19:37:18;;;;;;;13.75;8.45;;;;;;;;;;2557517;54;21061;-78
2021/12/03 19:39:45;;;;;;;12.57;9.38;;;;;;;;;;2316398;58;21065;-79
2021/12/03 19:42:15;;;;;;;12.07;8.55;;;;;;;;;;2556257;54;21683;-77
2021/12/03 19:44:45;;;;;;;19.10;10.48;;;;;;;;;;2556322;54;21037;-76
2021/12/03 19:47:13;;;;;;;15.85;8.23;;;;;;;;;;2315859;58;21065;-77
2021/12/03 19:49:50;;;;;;;10.07;7.12;;;;;;;;;;2316256;58;21069;-80
2021/12/03 19:52:26;;;;;;;11.73;8.60;;;;;;;;;;2556461;54;21057;-77
2021/12/03 19:54:54;;;;;;;12.45;8.25;;;;;;;;;;2316780;58;21066;-79
2021/12/03 19:57:22;;;;;;;13.15;7.78;;;;;;;;;;2556955;54;21070;-80
2021/12/03 19:59:49;;;;;;;10.88;8.32;;;;;;;;;;2555830;54;21113;-77
2021/12/03 20:02:16;;;;;;;8.25;6.85;;;;;;;;;;2316218;58;21587;-79
2021/12/03 20:04:45;;;;;;;10.85;8.77;;;;;;;;;;2317053;58;21512;-79
2021/12/03 20:07:12;;;;;;;9.38;7.97;;;;;;;;;;2317834;58;21190;-78
2021/12/03 20:09:45;;;;;;;10.63;8.25;;;;;;;;;;2556822;54;21172;-77
2021/12/03 20:12:15;;;;;;;11.02;7.65;;;;;;;;;;2316680;58;21355;-76
2021/12/03 20:14:44;;;;;;;14.10;10.02;;;;;;;;;;2557709;54;21053;-75
2021/12/03 20:17:16;;;;;;;14.13;8.77;;;;;;;;;;2557182;54;21128;-76
2021/12/03 20:19:47;;;;;;;12.17;8.57;;;;;;;;;;2315700;58;21140;-75
2021/12/03 20:22:18;;;;;;;11.10;8.10;;;;;;;;;;2315926;58;21033;-75
2021/12/03 20:25:02;;;;;;;13.52;9.13;;;;;;;;;;2316726;58;22275;-77
2021/12/03 20:27:40;;;;;;;13.93;9.70;;;;;;;;;;2315882;58;21049;-76
2021/12/03 20:30:15;;;;;;;13.60;8.82;;;;;;;;;;2556835;54;21113;-76
2021/12/03 20:32:49;;;;;;;16.70;10.98;;;;;;;;;;2556781;54;21050;-77
2021/12/03 20:35:36;;;;;;;14.55;9.27;;;;;;;;;;2314793;58;21065;-77
2021/12/03 20:38:03;;;;;;;16.02;11.23;;;;;;;;;;2557073;54;21061;-77
2021/12/03 20:40:33;;;;;;;14.57;10.23;;;;;;;;;;2555573;54;21153;-77
2021/12/03 20:43:14;;;;;;;14.95;10.20;;;;;;;;;;2316189;58;21058;-77
2021/12/03 20:45:56;;;;;;;17.23;12.43;;;;;;;;;;2317012;58;21109;-76
2021/12/03 20:48:36;;;;;;;14.52;10.88;;;;;;;;;;2316719;58;21113;-77
2021/12/03 20:51:21;;;;;;;14.65;9.30;;;;;;;;;;2314881;58;21294;-77
2021/12/03 20:53:55;;;;;;;15.98;11.18;;;;;;;;;;2315770;58;21113;-77